Time;durP1;ratioP1;P1;durP2;ratioP2;P2;SDS_P1;SDS_P2;PMS_P1;PMS_P2;Temp;Humidity;BMP_temperature;BMP_pressure;BME280_temperature;BME280_humidity;BME280_pressure;Samples;Min_cycle;Max_cycle;Signal;HPM_P1;HPM_P2
2023/03/27 00:00:12;;;;;;;;;;;;;;;6.54;100.00;101177.97;4964570;28;19973;-78
2023/03/27 00:02:41;;;;;;;;;;;;;;;6.53;100.00;101175.44;4948184;28;19914;-78
2023/03/27 00:05:09;;;;;;;;;;;;;;;6.55;100.00;101179.63;4947195;28;19918;-78
2023/03/27 00:07:40;;;;;;;;;;;;;;;6.58;100.00;101176.81;4954653;28;20009;-78
2023/03/27 00:10:11;;;;;;;;;;;;;;;6.57;100.00;101174.28;4951989;28;19925;-77
2023/03/27 00:12:43;;;;;;;;;;;;;;;6.56;100.00;101178.69;4953056;28;19942;-77
2023/03/27 00:15:15;;;;;;;;;;;;;;;6.55;100.00;101184.91;4938413;28;19925;-78
2023/03/27 00:17:50;;;;;;;;;;;;;;;6.57;100.00;101185.66;4953045;28;19914;-78
2023/03/27 00:20:21;;;;;;;;;;;;;;;6.56;100.00;101186.56;4944178;28;19947;-77
2023/03/27 00:22:55;;;;;;;;;;;;;;;6.54;100.00;101187.63;4968052;28;19949;-77
2023/03/27 00:25:26;;;;;;;;;;;;;;;6.54;100.00;101191.09;4959719;28;19918;-78
2023/03/27 00:27:57;;;;;;;;;;;;;;;6.56;100.00;101191.81;4970219;28;19918;-77
2023/03/27 00:30:27;;;;;;;;;;;;;;;6.54;100.00;101196.34;4953305;28;19914;-77
2023/03/27 00:32:57;;;;;;;;;;;;;;;6.47;100.00;101192.41;4949081;28;20437;-78
2023/03/27 00:35:26;;;;;;;;;;;;;;;6.32;100.00;101199.50;4962083;28;19914;-78
2023/03/27 00:37:54;;;;;;;;;;;;;;;6.18;100.00;101206.47;4947536;28;19946;-77
2023/03/27 00:40:22;;;;;;;;;;;;;;;6.11;100.00;101206.94;4964642;28;19923;-77
2023/03/27 00:42:51;;;;;;;;;;;;;;;6.09;100.00;101204.41;4956809;28;19920;-77
2023/03/27 00:45:20;;;;;;;;;;;;;;;6.04;100.00;101201.19;4949979;28;19922;-78
2023/03/27 00:47:55;;;;;;;;;;;;;;;5.98;100.00;101210.31;4956567;28;20406;-78
2023/03/27 00:50:25;;;;;;;;;;;;;;;5.91;100.00;101212.47;4924521;28;19930;-77
2023/03/27 00:52:57;;;;;;;;;;;;;;;5.92;100.00;101200.19;4920491;28;20275;-78
2023/03/27 00:55:31;;;;;;;;;;;;;;;5.87;100.00;101204.88;4965963;28;21317;-78
2023/03/27 00:58:04;;;;;;;;;;;;;;;5.78;100.00;101212.38;4939682;28;19928;-78
2023/03/27 01:00:34;;;;;;;;;;;;;;;5.68;100.00;101208.63;4965242;28;19918;-77
2023/03/27 01:03:05;;;;;;;;;;;;;;;5.56;100.00;101205.81;4941652;28;19924;-77
2023/03/27 01:05:36;;;;;;;;;;;;;;;5.53;100.00;101206.00;4952044;28;19922;-77
2023/03/27 01:08:07;;;;;;;;;;;;;;;5.56;100.00;101208.44;4938876;28;19937;-78
2023/03/27 01:10:40;;;;;;;;;;;;;;;5.57;100.00;101202.25;4948004;28;20279;-77
2023/03/27 01:13:10;;;;;;;;;;;;;;;5.47;100.00;101203.75;4954623;28;19918;-77
2023/03/27 01:15:57;;;;;;;;;;;;;;;5.33;100.00;101205.44;4929282;28;19918;-77
2023/03/27 01:18:46;;;;;;;;;;;;;;;5.27;100.00;101211.00;4960615;28;19921;-77
2023/03/27 01:21:39;;;;;;;;;;;;;;;5.27;100.00;101211.00;4940298;28;20126;-77
2023/03/27 01:24:22;;;;;;;;;;;;;;;5.36;100.00;101211.41;4921194;28;20427;-77
2023/03/27 01:26:58;;;;;;;;;;;;;;;5.43;100.00;101207.50;4954904;28;19918;-77
2023/03/27 01:29:29;;;;;;;;;;;;;;;5.49;100.00;101208.91;4936732;29;19914;-77
2023/03/27 01:32:19;;;;;;;;;;;;;;;5.58;100.00;101214.44;4866753;28;19914;-78
2023/03/27 01:35:06;;;;;;;;;;;;;;;5.63;100.00;101203.66;4967734;28;19997;-77
2023/03/27 01:37:57;;;;;;;;;;;;;;;5.59;100.00;101204.78;4938799;28;20028;-78
2023/03/27 01:40:30;;;;;;;;;;;;;;;5.55;100.00;101205.91;4944196;28;20004;-78
2023/03/27 01:43:03;;;;;;;;;;;;;;;5.52;100.00;101200.84;4954349;28;20008;-77
2023/03/27 01:45:35;;;;;;;;;;;;;;;5.51;100.00;101202.63;4951160;28;19914;-78
2023/03/27 01:48:15;;;;;;;;;;;;;;;5.54;100.00;101198.97;4959045;28;19914;-78
2023/03/27 01:51:01;;;;;;;;;;;;;;;5.62;100.00;101203.75;4950799;28;19985;-78
2023/03/27 01:53:36;;;;;;;;;;;;;;;5.65;100.00;101199.19;4966081;28;20282;-77
2023/03/27 01:56:25;;;;;;;;;;;;;;;5.69;100.00;101195.44;4950517;29;19922;-77
2023/03/27 01:58:58;;;;;;;;;;;;;;;5.69;100.00;101199.81;4946536;28;19929;-77
2023/03/27 02:01:35;;;;;;;;;;;;;;;5.61;100.00;101202.91;4968061;28;19955;-78
2023/03/27 02:04:07;;;;;;;;;;;;;;;5.58;100.00;101206.56;4952086;28;20000;-78
2023/03/27 02:06:44;;;;;;;;;;;;;;;5.53;100.00;101203.38;4953522;28;19924;-77
2023/03/27 02:09:23;;;;;;;;;;;;;;;5.57;100.00;101201.41;4950535;28;19965;-77
2023/03/27 02:12:00;;;;;;;;;;;;;;;5.66;100.00;101206.09;4951066;28;19918;-78
2023/03/27 02:14:36;;;;;;;;;;;;;;;5.73;100.00;101201.34;4971089;28;19918;-77
2023/03/27 02:17:09;;;;;;;;;;;;;;;5.81;100.00;101206.94;4963777;28;19914;-77
2023/03/27 02:19:46;;;;;;;;;;;;;;;5.88;100.00;101203.94;4961928;28;19918;-77
2023/03/27 02:22:15;;;;;;;;;;;;;;;5.92;100.00;101213.31;4930958;28;19914;-78
2023/03/27 02:24:47;;;;;;;;;;;;;;;5.95;100.00;101206.09;4933213;28;20390;-77
2023/03/27 02:27:18;;;;;;;;;;;;;;;5.99;100.00;101213.78;4967672;28;20375;-78
2023/03/27 02:29:55;;;;;;;;;;;;;;;6.04;100.00;101215.22;4949063;28;19915;-78
2023/03/27 02:32:32;;;;;;;;;;;;;;;6.06;100.00;101212.50;4952335;28;19969;-78
2023/03/27 02:35:04;;;;;;;;;;;;;;;5.96;100.00;101215.66;4920925;28;20389;-78
2023/03/27 02:37:52;;;;;;;;;;;;;;;5.81;100.00;101214.81;4952730;28;19992;-78
2023/03/27 02:40:59;;;;;;;;;;;;;;;5.68;100.00;101217.34;4939535;28;19918;-78
2023/03/27 02:43:43;;;;;;;;;;;;;;;5.46;100.00;101223.88;4939446;28;20442;-78
2023/03/27 02:46:20;;;;;;;;;;;;;;;5.28;100.00;101227.59;4933925;28;19914;-78
2023/03/27 02:48:52;;;;;;;;;;;;;;;5.07;100.00;101228.75;4941503;28;20005;-78
2023/03/27 02:51:29;;;;;;;;;;;;;;;4.91;100.00;101231.41;4955282;28;19914;-77
2023/03/27 02:54:02;;;;;;;;;;;;;;;4.81;100.00;101235.50;4929502;28;19918;-78
2023/03/27 02:56:39;;;;;;;;;;;;;;;4.74;100.00;101223.66;4962048;28;19918;-78
2023/03/27 02:59:13;;;;;;;;;;;;;;;4.66;100.00;101229.34;4950234;28;20375;-77
2023/03/27 03:01:44;;;;;;;;;;;;;;;4.59;100.00;101240.16;4947450;29;19922;-78
2023/03/27 03:04:21;;;;;;;;;;;;;;;4.54;100.00;101236.94;4937930;29;19940;-77
2023/03/27 03:07:10;;;;;;;;;;;;;;;4.48;100.00;101239.91;4879852;29;20038;-77
2023/03/27 03:09:40;;;;;;;;;;;;;;;4.46;100.00;101237.38;4943371;28;19915;-77
2023/03/27 03:12:11;;;;;;;;;;;;;;;4.41;100.00;101235.94;4921608;29;19928;-77
2023/03/27 03:14:43;;;;;;;;;;;;;;;4.43;100.00;101248.00;4929482;29;20099;-77
2023/03/27 03:17:14;;;;;;;;;;;;;;;4.33;100.00;101245.03;4938679;28;20145;-78
2023/03/27 03:19:43;;;;;;;;;;;;;;;4.28;100.00;101241.00;4933455;29;20030;-78
2023/03/27 03:22:13;;;;;;;;;;;;;;;4.19;100.00;101243.19;4953710;29;19981;-77
2023/03/27 03:24:42;;;;;;;;;;;;;;;4.16;100.00;101240.72;4935695;29;19978;-78
2023/03/27 03:27:19;;;;;;;;;;;;;;;4.16;100.00;101252.97;4937964;29;19914;-77
2023/03/27 03:29:58;;;;;;;;;;;;;;;4.15;100.00;101246.91;4919452;29;19918;-77
2023/03/27 03:32:29;;;;;;;;;;;;;;;4.19;100.00;101242.31;4937324;29;19953;-77
2023/03/27 03:35:00;;;;;;;;;;;;;;;4.19;100.00;101242.31;4902614;29;19922;-78
2023/03/27 03:37:37;;;;;;;;;;;;;;;4.26;100.00;101243.69;4914585;29;19921;-78
2023/03/27 03:40:10;;;;;;;;;;;;;;;4.30;100.00;101247.00;4895351;29;20774;-77
2023/03/27 03:42:48;;;;;;;;;;;;;;;4.24;100.00;101242.94;4936704;28;19919;-77
2023/03/27 03:45:17;;;;;;;;;;;;;;;4.25;100.00;101243.78;4933850;29;20015;-77
2023/03/27 03:47:47;;;;;;;;;;;;;;;4.23;100.00;101238.63;4947423;28;19918;-77
2023/03/27 03:50:17;;;;;;;;;;;;;;;4.21;100.00;101241.34;4936075;29;20001;-77
2023/03/27 03:52:47;;;;;;;;;;;;;;;4.24;100.00;101242.09;4918121;29;19918;-77
2023/03/27 03:55:17;;;;;;;;;;;;;;;4.29;100.00;101237.44;4922014;29;19970;-77
2023/03/27 03:57:46;;;;;;;;;;;;;;;4.29;100.00;101242.69;4938700;28;19922;-77
2023/03/27 04:00:21;;;;;;;;;;;;;;;4.23;100.00;101233.41;4933229;29;20009;-77
2023/03/27 04:02:53;;;;;;;;;;;;;;;4.15;100.00;101236.44;4936156;29;19925;-77
2023/03/27 04:05:23;;;;;;;;;;;;;;;4.21;100.00;101243.09;4930662;29;19914;-77
2023/03/27 04:07:54;;;;;;;;;;;;;;;4.21;100.00;101243.94;4933340;29;19926;-78
2023/03/27 04:10:33;;;;;;;;;;;;;;;4.25;100.00;101238.56;4954960;29;19918;-77
2023/03/27 04:13:04;;;;;;;;;;;;;;;4.32;100.00;101248.59;4933933;29;19921;-77
2023/03/27 04:15:37;;;;;;;;;;;;;;;4.34;100.00;101252.00;4934338;29;19914;-77
2023/03/27 04:18:13;;;;;;;;;;;;;;;4.27;100.00;101245.38;4921913;29;20017;-77
2023/03/27 04:20:48;;;;;;;;;;;;;;;4.20;100.00;101239.63;4950698;29;19926;-77
2023/03/27 04:23:20;;;;;;;;;;;;;;;4.17;100.00;101242.41;4935379;29;19969;-77
2023/03/27 04:25:48;;;;;;;;;;;;;;;4.16;100.00;101235.50;4918640;29;20299;-77
2023/03/27 04:28:23;;;;;;;;;;;;;;;4.12;100.00;101236.59;4930165;29;19973;-77
2023/03/27 04:31:09;;;;;;;;;;;;;;;4.04;100.00;101237.00;4930690;29;20009;-77
2023/03/27 04:34:19;;;;;;;;;;;;;;;4.03;100.00;101239.72;4898449;29;19918;-77
2023/03/27 04:37:08;;;;;;;;;;;;;;;3.99;100.00;101238.16;4905119;29;19922;-77
2023/03/27 04:39:41;;;;;;;;;;;;;;;3.87;100.00;101237.88;4911377;29;19935;-77
2023/03/27 04:42:14;;;;;;;;;;;;;;;3.84;100.00;101235.44;4924241;29;20005;-77
2023/03/27 04:44:46;;;;;;;;;;;;;;;3.80;100.00;101239.16;4936286;29;19921;-77
2023/03/27 04:47:16;;;;;;;;;;;;;;;3.80;100.00;101240.00;4916100;29;19997;-77
2023/03/27 04:49:49;;;;;;;;;;;;;;;3.87;100.00;101243.13;4925121;29;19921;-78
2023/03/27 04:52:24;;;;;;;;;;;;;;;3.92;100.00;101248.09;4933409;29;20450;-77
2023/03/27 04:54:51;;;;;;;;;;;;;;;3.93;100.00;101244.59;4932681;29;19922;-77
2023/03/27 04:57:21;;;;;;;;;;;;;;;3.97;100.00;101249.56;4951648;29;19980;-77
2023/03/27 04:59:49;;;;;;;;;;;;;;;3.99;100.00;101253.88;4920205;29;19925;-77
2023/03/27 05:02:34;;;;;;;;;;;;;;;3.89;100.00;101256.13;4951076;29;20310;-77
2023/03/27 05:05:09;;;;;;;;;;;;;;;3.80;100.00;101250.47;4917644;29;19914;-77
2023/03/27 05:07:37;;;;;;;;;;;;;;;3.76;100.00;101255.94;4926393;29;20012;-77
2023/03/27 05:10:07;;;;;;;;;;;;;;;3.72;100.00;101250.88;4928892;29;20544;-77
2023/03/27 05:12:36;;;;;;;;;;;;;;;3.68;100.00;101256.34;4932960;29;19997;-78
2023/03/27 05:15:05;;;;;;;;;;;;;;;3.56;100.00;101244.72;4913967;29;20473;-78
2023/03/27 05:17:39;;;;;;;;;;;;;;;3.46;100.00;101247.81;4933448;29;20346;-77
2023/03/27 05:20:10;;;;;;;;;;;;;;;3.43;100.00;101258.41;4927406;29;19973;-77
2023/03/27 05:22:41;;;;;;;;;;;;;;;3.38;100.00;101254.34;4917330;29;20018;-76
2023/03/27 05:25:26;;;;;;;;;;;;;;;3.34;100.00;101251.88;4929706;29;19941;-76
2023/03/27 05:27:54;;;;;;;;;;;;;;;3.36;100.00;101241.34;4911328;29;19914;-77
2023/03/27 05:30:25;;;;;;;;;;;;;;;3.35;100.00;101242.28;4911313;29;19918;-77
2023/03/27 05:33:06;;;;;;;;;;;;;;;3.33;100.00;101241.50;4912510;29;19914;-77
2023/03/27 05:35:36;;;;;;;;;;;;;;;3.36;100.00;101233.50;4935523;29;19918;-77
2023/03/27 05:38:07;;;;;;;;;;;;;;;3.37;100.00;101236.97;4914087;29;19925;-77
2023/03/27 05:40:40;;;;;;;;;;;;;;;3.34;100.00;101241.41;4934968;29;20568;-77
2023/03/27 05:43:10;;;;;;;;;;;;;;;3.36;100.00;101246.56;4927591;29;20662;-77
2023/03/27 05:45:38;;;;;;;;;;;;;;;3.39;100.00;101248.19;4933494;29;19918;-77
2023/03/27 05:48:07;;;;;;;;;;;;;;;3.42;100.00;101251.50;4934786;28;19914;-78
2023/03/27 05:50:40;;;;;;;;;;;;;;;3.43;100.00;101240.13;4929832;29;20264;-77
2023/03/27 05:53:17;;;;;;;;;;;;;;;3.40;100.00;101245.50;4947181;29;19914;-77
2023/03/27 05:56:08;;;;;;;;;;;;;;;3.43;100.00;101247.97;4925570;29;19921;-77
2023/03/27 05:58:49;;;;;;;;;;;;;;;3.49;100.00;101249.41;4933325;29;19929;-77
2023/03/27 06:01:19;;;;;;;;;;;;;;;3.47;100.00;101251.28;4928623;28;19929;-77
2023/03/27 06:03:53;;;;;;;;;;;;;;;3.55;100.00;101249.09;4923951;28;19918;-77
2023/03/27 06:06:27;;;;;;;;;;;;;;;3.66;100.00;101242.47;4968211;28;19965;-77
2023/03/27 06:08:58;;;;;;;;;;;;;;;3.68;100.00;101245.88;4931701;28;19948;-77
2023/03/27 06:11:28;;;;;;;;;;;;;;;3.71;100.00;101245.72;4968255;28;19914;-78
2023/03/27 06:13:57;;;;;;;;;;;;;;;3.72;100.00;101250.88;4949336;28;19914;-77
2023/03/27 06:16:33;;;;;;;;;;;;;;;3.65;100.00;101240.78;4879820;28;19938;-77
2023/03/27 06:19:01;;;;;;;;;;;;;;;3.65;100.00;101243.38;4968782;28;19921;-77
2023/03/27 06:21:29;;;;;;;;;;;;;;;3.64;100.00;101252.16;4936135;28;19918;-77
2023/03/27 06:24:00;;;;;;;;;;;;;;;3.59;100.00;101258.50;4953386;28;20028;-77
2023/03/27 06:26:29;;;;;;;;;;;;;;;3.60;100.00;101256.69;4958722;28;19918;-77
2023/03/27 06:28:59;;;;;;;;;;;;;;;3.67;100.00;101263.31;4938862;28;19926;-78
2023/03/27 06:31:30;;;;;;;;;;;;;;;3.69;100.00;101258.88;4971512;28;19913;-77
2023/03/27 06:34:05;;;;;;;;;;;;;;;3.79;100.00;101255.78;4938329;28;20419;-77
2023/03/27 06:37:02;;;;;;;;;;;;;;;3.89;100.00;101261.34;4969366;28;19914;-77
2023/03/27 06:39:37;;;;;;;;;;;;;;;3.95;100.00;101261.06;4954102;28;20332;-77
2023/03/27 06:42:07;;;;;;;;;;;;;;;4.01;100.00;101268.56;4942979;28;19914;-77
2023/03/27 06:44:45;;;;;;;;;;;;;;;4.01;100.00;101268.56;4953398;28;19918;-77
2023/03/27 06:47:28;;;;;;;;;;;;;;;4.01;100.00;101267.72;4952111;28;19910;-78
2023/03/27 06:50:24;;;;;;;;;;;;;;;3.96;100.00;101273.19;4967933;28;19970;-78
2023/03/27 06:52:54;;;;;;;;;;;;;;;3.98;100.00;101268.72;4952579;28;19910;-77
2023/03/27 06:55:41;;;;;;;;;;;;;;;4.02;100.00;101266.78;4951558;28;19917;-77
2023/03/27 06:58:13;;;;;;;;;;;;;;;4.05;100.00;101274.47;4964006;28;19918;-77
2023/03/27 07:00:43;;;;;;;;;;;;;;;4.07;100.00;101270.00;4927723;28;19914;-77
2023/03/27 07:03:32;;;;;;;;;;;;;;;4.01;100.00;101265.97;4974401;28;19910;-77
2023/03/27 07:06:18;;;;;;;;;;;;;;;4.07;100.00;101273.47;4972933;28;19914;-77
2023/03/27 07:08:52;;;;;;;;;;;;;;;4.12;100.00;101281.09;4956742;28;19914;-77
2023/03/27 07:11:20;;;;;;;;;;;;;;;4.17;100.00;101279.03;4972520;28;20382;-77
2023/03/27 07:13:59;;;;;;;;;;;;;;;4.22;100.00;101277.03;4962738;28;19917;-77
2023/03/27 07:16:30;;;;;;;;;;;;;;;4.24;100.00;101281.38;4956562;28;19910;-77
2023/03/27 07:19:04;;;;;;;;;;;;;;;4.21;100.00;101291.06;4968772;28;19914;-77
2023/03/27 07:21:35;;;;;;;;;;;;;;;4.17;100.00;101280.84;4954469;28;19972;-77
2023/03/27 07:24:05;;;;;;;;;;;;;;;4.26;100.00;101279.50;4953535;29;19910;-77
2023/03/27 07:26:37;;;;;;;;;;;;;;;4.28;100.00;101291.59;4958470;28;19929;-77
2023/03/27 07:29:12;;;;;;;;;;;;;;;4.35;100.00;101286.84;4959949;28;19926;-77
2023/03/27 07:31:44;;;;;;;;;;;;;;;4.39;100.00;101291.00;4952181;28;19910;-77
2023/03/27 07:34:12;;;;;;;;;;;;;;;4.42;100.00;101287.34;4940929;28;20252;-77
2023/03/27 07:37:08;;;;;;;;;;;;;;;4.42;100.00;101285.59;4901643;28;20010;-77
2023/03/27 07:39:40;;;;;;;;;;;;;;;4.39;100.00;101290.16;4955296;28;19970;-77
2023/03/27 07:42:10;;;;;;;;;;;;;;;4.40;100.00;101294.44;4930942;28;20354;-77
2023/03/27 07:44:52;;;;;;;;;;;;;;;4.45;100.00;101287.19;4966197;28;20000;-78
2023/03/27 07:47:20;;;;;;;;;;;;;;;4.48;100.00;101292.25;4955955;28;19922;-78
2023/03/27 07:49:47;;;;;;;;;;;;;;;4.50;100.00;101295.66;4935888;28;19910;-77
2023/03/27 07:52:20;;;;;;;;;;;;;;;4.45;100.00;101287.19;4936544;29;19956;-77
2023/03/27 07:55:01;;;;;;;;;;;;;;;4.44;100.00;101294.19;4953052;28;19910;-77
2023/03/27 07:57:39;;;;;;;;;;;;;;;4.52;100.00;101298.19;4943078;28;20064;-78
2023/03/27 08:00:15;;;;;;;;;;;;;;;4.54;100.00;101294.53;4951566;28;19928;-78
2023/03/27 08:02:46;;;;;;;;;;;;;;;4.53;100.00;101294.63;4957777;28;20276;-77
2023/03/27 08:05:18;;;;;;;;;;;;;;;4.58;100.00;101297.84;4937121;28;19918;-77
2023/03/27 08:07:55;;;;;;;;;;;;;;;4.57;100.00;101296.16;4946926;28;19921;-77
2023/03/27 08:10:40;;;;;;;;;;;;;;;4.63;100.00;101295.84;4956230;28;19914;-77
2023/03/27 08:13:11;;;;;;;;;;;;;;;4.71;100.00;101295.41;4939553;28;20263;-78
2023/03/27 08:15:41;;;;;;;;;;;;;;;4.70;100.00;101297.16;4935224;28;19914;-77
2023/03/27 08:18:20;;;;;;;;;;;;;;;4.70;100.00;101294.56;4950395;28;19914;-77
2023/03/27 08:20:52;;;;;;;;;;;;;;;4.74;100.00;101283.91;4952108;28;19922;-78
2023/03/27 08:23:26;;;;;;;;;;;;;;;4.70;100.00;101280.59;4954989;28;19914;-77
2023/03/27 08:26:20;;;;;;;;;;;;;;;4.79;100.00;101287.97;4956300;28;20001;-77
2023/03/27 08:29:09;;;;;;;;;;;;;;;4.79;100.00;101287.97;4937108;28;19925;-77
2023/03/27 08:31:38;;;;;;;;;;;;;;;4.87;100.00;101294.53;4963300;28;19993;-77
2023/03/27 08:34:07;;;;;;;;;;;;;;;4.93;100.00;101283.72;4945784;28;19922;-78
2023/03/27 08:36:44;;;;;;;;;;;;;;;5.05;100.00;101287.41;4947204;28;19929;-77
2023/03/27 08:39:13;;;;;;;;;;;;;;;5.12;100.00;101291.38;4954316;28;20312;-78
2023/03/27 08:41:56;;;;;;;;;;;;;;;5.16;100.00;101294.69;4954591;28;19957;-78
2023/03/27 08:44:30;;;;;;;;;;;;;;;5.26;100.00;101293.22;4943249;28;19925;-78
2023/03/27 08:47:18;;;;;;;;;;;;;;;5.31;100.00;101287.69;4945507;28;19914;-78
2023/03/27 08:49:57;;;;;;;;;;;;;;;5.30;100.00;101292.09;4941529;28;19914;-78
2023/03/27 08:52:31;;;;;;;;;;;;;;;5.31;100.00;101285.94;4941607;28;19946;-77
2023/03/27 08:55:12;;;;;;;;;;;;;;;5.37;100.00;101279.47;4931184;28;19926;-77
2023/03/27 08:57:50;;;;;;;;;;;;;;;5.43;100.00;101284.34;4936022;28;19924;-78
2023/03/27 09:00:26;;;;;;;;;;;;;;;5.50;100.00;101276.97;4943890;28;19932;-78
2023/03/27 09:03:52;;;;;;;;;;;;;;;5.64;100.00;101281.41;4955560;28;19918;-78
2023/03/27 09:06:27;;;;;;;;;;;;;;;5.75;100.00;101280.75;4871482;29;19916;-77
2023/03/27 09:09:02;;;;;;;;;;;;;;;5.88;100.00;101286.13;4891538;29;19915;-78
2023/03/27 09:11:32;;;;;;;;;;;;;;;6.00;100.00;101286.31;4929787;28;19964;-77
2023/03/27 09:14:08;;;;;;;;;;;;;;;5.99;100.00;101284.66;4948693;28;19966;-77
2023/03/27 09:16:50;;;;;;;;;;;;;;;6.03;100.00;101284.34;4950797;28;20045;-77
2023/03/27 09:19:48;;;;;;;;;;;;;;;6.15;100.00;101276.69;4945236;28;19948;-77
2023/03/27 09:22:24;;;;;;;;;;;;;;;6.33;100.00;101287.84;4947321;28;19921;-78
2023/03/27 09:25:15;;;;;;;;;;;;;;;6.35;100.00;101282.50;4939322;28;19914;-78
2023/03/27 09:28:30;;;;;;;;;;;;;;;6.50;100.00;101281.53;4944598;28;20378;-78
2023/03/27 09:31:16;;;;;;;;;;;;;;;6.69;100.00;101272.47;4957695;28;19926;-78
2023/03/27 09:33:46;;;;;;;;;;;;;;;6.88;100.00;101279.19;4935742;28;19949;-78
2023/03/27 09:36:16;;;;;;;;;;;;;;;6.95;100.00;101275.19;4941554;28;19949;-77
2023/03/27 09:38:49;;;;;;;;;;;;;;;7.07;100.00;101274.41;4958041;28;20016;-78
2023/03/27 09:41:22;;;;;;;;;;;;;;;7.20;100.00;101271.81;4934576;28;20194;-78
2023/03/27 09:43:59;;;;;;;;;;;;;;;7.29;100.00;101272.16;4947167;28;21108;-77
2023/03/27 09:46:30;;;;;;;;;;;;;;;7.39;100.00;101272.38;4946220;28;19918;-78
2023/03/27 09:49:12;;;;;;;;;;;;;;;7.44;100.00;101281.63;4963494;28;19944;-77
2023/03/27 09:51:48;;;;;;;;;;;;;;;7.51;100.00;101274.19;4928340;28;19918;-77
2023/03/27 09:54:49;;;;;;;;;;;;;;;7.54;100.00;101273.97;4972089;28;19968;-77
2023/03/27 09:57:18;;;;;;;;;;;;;;;7.52;100.00;101277.63;4952669;28;19925;-77
2023/03/27 10:00:00;;;;;;;;;;;;;;;7.68;100.00;101272.19;4953976;28;19922;-78
2023/03/27 10:02:30;;;;;;;;;;;;;;;7.84;100.00;101269.34;4938661;28;19925;-77
2023/03/27 10:04:58;;;;;;;;;;;;;;;7.98;100.00;101271.00;4973952;28;20697;-78
2023/03/27 10:07:31;;;;;;;;;;;;;;;8.10;100.00;101264.06;4929428;28;20371;-77
2023/03/27 10:10:33;;;;;;;;;;;;;;;8.16;100.00;101254.88;4955696;28;19929;-77
2023/03/27 10:13:06;;;;;;;;;;;;;;;8.18;100.00;101252.97;4957948;28;20385;-77
2023/03/27 10:15:41;;;;;;;;;;;;;;;8.26;100.00;101249.81;4968308;28;20004;-77
2023/03/27 10:18:29;;;;;;;;;;;;;;;8.22;100.00;101245.72;4952516;28;19936;-78
2023/03/27 10:21:09;;;;;;;;;;;;;;;8.22;100.00;101249.16;4967632;28;19922;-76
2023/03/27 10:23:48;;;;;;;;;;;;;;;8.18;100.00;101247.72;4971299;28;20023;-78
2023/03/27 10:26:36;;;;;;;;;;;;;;;8.27;100.00;101240.94;4956636;28;20916;-77
2023/03/27 10:29:22;;;;;;;;;;;;;;;8.34;100.00;101244.84;4907899;28;20009;-77
2023/03/27 10:31:53;;;;;;;;;;;;;;;8.44;100.00;101239.75;4947523;28;20344;-77
2023/03/27 10:34:53;;;;;;;;;;;;;;;8.54;100.00;101235.53;4936414;28;20386;-77
2023/03/27 10:37:35;;;;;;;;;;;;;;;8.69;100.00;101233.53;4974108;28;19984;-78
2023/03/27 10:40:29;;;;;;;;;;;;;;;8.76;100.00;101233.13;4965607;28;19922;-77
2023/03/27 10:43:09;;;;;;;;;;;;;;;8.85;100.00;101239.50;4952671;28;19918;-77
2023/03/27 10:45:49;;;;;;;;;;;;;;;8.80;100.00;101227.50;4923359;28;19914;-78
2023/03/27 10:48:26;;;;;;;;;;;;;;;8.85;100.00;101224.53;4955935;28;19914;-77
2023/03/27 10:50:59;;;;;;;;;;;;;;;8.95;100.00;101234.41;4950425;28;19915;-78
2023/03/27 10:53:57;;;;;;;;;;;;;;;9.06;100.00;101223.91;4947703;28;19922;-78
2023/03/27 10:56:43;;;;;;;;;;;;;;;9.15;100.00;101233.75;4949717;28;20425;-77
2023/03/27 10:59:19;;;;;;;;;;;;;;;9.17;100.00;101231.00;4933652;28;19968;-77
2023/03/27 11:01:54;;;;;;;;;;;;;;;9.23;100.00;101224.41;4968255;28;20423;-77
2023/03/27 11:04:42;;;;;;;;;;;;;;;9.37;100.00;101215.44;4938959;28;19968;-77
2023/03/27 11:07:19;;;;;;;;;;;;;;;9.66;100.00;101210.56;4955357;28;19957;-77
2023/03/27 11:09:54;;;;;;;;;;;;;;;9.89;100.00;101204.44;4965609;28;20461;-77
2023/03/27 11:12:31;;;;;;;;;;;;;;;9.85;100.00;101198.56;4952431;28;19918;-77
2023/03/27 11:15:06;;;;;;;;;;;;;;;9.72;100.00;101206.59;4969877;28;19918;-77
2023/03/27 11:17:41;;;;;;;;;;;;;;;9.63;100.00;101207.31;4951834;28;19918;-77
2023/03/27 11:20:20;;;;;;;;;;;;;;;9.50;100.00;101215.34;4953771;28;19941;-77
2023/03/27 11:23:21;;;;;;;;;;;;;;;9.59;100.00;101204.06;4962874;28;19914;-76
2023/03/27 11:26:15;;;;;;;;;;;;;;;9.61;100.00;101204.81;4966218;28;20374;-77
2023/03/27 11:28:51;;;;;;;;;;;;;;;9.73;100.00;101197.72;4959957;28;20285;-76
2023/03/27 11:31:44;;;;;;;;;;;;;;;9.77;100.00;101209.72;4944739;28;19914;-76
2023/03/27 11:34:38;;;;;;;;;;;;;;;9.64;100.00;101204.56;4954055;28;19920;-77
2023/03/27 11:37:30;;;;;;;;;;;;;;;9.67;100.00;101208.75;4949044;29;19924;-77
2023/03/27 11:40:04;;;;;;;;;;;;;;;9.66;100.00;101207.94;4969458;28;20022;-77
2023/03/27 11:42:38;;;;;;;;;;;;;;;9.77;100.00;101187.75;4952567;28;20004;-77
2023/03/27 11:45:12;;;;;;;;;;;;;;;9.79;100.00;101199.03;4939027;28;19918;-77
2023/03/27 11:48:04;;;;;;;;;;;;;;;9.86;100.00;101200.22;4956114;28;19917;-77
2023/03/27 11:50:46;;;;;;;;;;;;;;;9.85;100.00;101203.00;4960284;28;19914;-77
2023/03/27 11:53:31;;;;;;;;;;;;;;;10.03;100.00;101203.34;4954167;28;19921;-77
2023/03/27 11:56:11;;;;;;;;;;;;;;;10.08;100.00;101203.81;4952744;28;19918;-77
2023/03/27 11:59:14;;;;;;;;;;;;;;;10.13;100.00;101201.63;4939281;29;19970;-77
2023/03/27 12:01:59;;;;;;;;;;;;;;;10.33;100.00;101201.00;4923891;29;19926;-77
2023/03/27 12:04:37;;;;;;;;;;;;;;;10.39;100.00;101193.44;4933774;29;20379;-78
2023/03/27 12:07:45;;;;;;;;;;;;;;;10.34;100.00;101200.88;4935535;29;20005;-77
2023/03/27 12:10:28;;;;;;;;;;;;;;;10.23;100.00;101209.69;4947353;29;19920;-77
2023/03/27 12:13:08;;;;;;;;;;;;;;;10.16;100.00;101216.44;4921198;29;19918;-77
2023/03/27 12:15:42;;;;;;;;;;;;;;;10.12;100.00;101223.75;4932457;28;20126;-77
2023/03/27 12:18:14;;;;;;;;;;;;;;;10.17;100.00;101211.03;4931373;28;20367;-77
2023/03/27 12:20:55;;;;;;;;;;;;;;;10.13;100.00;101211.38;4925925;29;19918;-77
2023/03/27 12:23:36;;;;;;;;;;;;;;;10.11;100.00;101208.03;4880203;29;21173;-77
2023/03/27 12:26:23;;;;;;;;;;;;;;;10.09;100.00;101202.88;4940804;28;19925;-77
2023/03/27 12:29:12;;;;;;;;;;;;;;;10.10;100.00;101208.97;4946286;28;19914;-77
2023/03/27 12:32:06;;;;;;;;;;;;;;;10.10;100.00;101201.03;4953378;28;19965;-77
2023/03/27 12:34:52;;;;;;;;;;;;;;;10.18;100.00;101198.63;4925654;29;19918;-77
2023/03/27 12:37:28;;;;;;;;;;;;;;;10.30;100.00;101194.19;4931230;29;19919;-77
2023/03/27 12:39:59;;;;;;;;;;;;;;;10.45;100.00;101191.25;4931437;29;20023;-77
2023/03/27 12:42:48;;;;;;;;;;;;;;;10.42;100.00;101198.47;4934795;29;20606;-77
2023/03/27 12:45:21;;;;;;;;;;;;;;;10.40;100.00;101181.06;4942882;29;19922;-77
2023/03/27 12:48:06;;;;;;;;;;;;;;;10.37;100.00;101183.94;4931804;29;19925;-77
2023/03/27 12:50:41;;;;;;;;;;;;;;;10.38;100.00;101188.28;4933273;29;19990;-77
2023/03/27 12:53:29;;;;;;;;;;;;;;;10.38;100.00;101181.16;4927957;29;19921;-78
2023/03/27 12:56:11;;;;;;;;;;;;;;;10.33;100.00;101179.88;4927453;29;19958;-77
2023/03/27 12:58:40;;;;;;;;;;;;;;;10.37;100.00;101181.28;4928274;28;20311;-77
2023/03/27 13:01:40;;;;;;;;;;;;;;;10.29;100.00;101172.19;4923295;28;19930;-77
2023/03/27 13:04:31;;;;;;;;;;;;;;;10.26;100.00;101161.88;4926519;29;19930;-77
2023/03/27 13:07:21;;;;;;;;;;;;;;;10.23;100.00;101166.56;4950916;28;19918;-77
2023/03/27 13:10:09;;;;;;;;;;;;;;;10.29;100.00;101158.97;4968488;28;19915;-77
2023/03/27 13:12:56;;;;;;;;;;;;;;;10.29;100.00;101161.63;4934480;29;19914;-77
2023/03/27 13:15:50;;;;;;;;;;;;;;;10.27;100.00;101158.25;4934841;28;19945;-77
2023/03/27 13:18:33;;;;;;;;;;;;;;;10.26;100.00;101148.66;4910923;29;20344;-77
2023/03/27 13:21:17;;;;;;;;;;;;;;;10.36;100.00;101150.56;4917515;29;19919;-77
2023/03/27 13:23:50;;;;;;;;;;;;;;;10.37;100.00;101152.22;4926730;28;19921;-77
2023/03/27 13:26:51;;;;;;;;;;;;;;;10.41;100.00;101149.22;4950368;29;19914;-77